METAR Data
IDs: Format: Raw Decoded Include TAF

Data at: 1213 UTC 16 Aug 2022

KCPU 161155Z AUTO 00000KT 10SM CLR 19/03 A2984 RMK AO2 T01920030 10258 20188
KCPU 161135Z AUTO 00000KT 10SM CLR 20/03 A2984 RMK AO2 T01980026
KCPU 161115Z AUTO 00000KT 10SM CLR 20/03 A2984 RMK AO2 T02030026
KCPU 161055Z AUTO 00000KT 10SM CLR 19/03 A2984 RMK AO2 T01900027
KCPU 161035Z AUTO 00000KT 10SM CLR 20/03 A2984 RMK AO2 T02020027
KCPU 161015Z AUTO 00000KT 10SM CLR 20/03 A2985 RMK AO2 T02040026
KCPU 160955Z AUTO 13003KT 10SM CLR 20/03 A2985 RMK AO2 T02000030
KCPU 160935Z AUTO 00000KT 10SM CLR 21/03 A2985 RMK AO2 T02060025
KCPU 160915Z AUTO 00000KT 10SM CLR 21/03 A2985 RMK AO2 T02100025
KCPU 160855Z AUTO 12003KT 10SM CLR 20/03 A2985 RMK AO2 T02040026
KCPU 160835Z AUTO 00000KT 10SM CLR 21/03 A2986 RMK AO2 T02080025
KCPU 160815Z AUTO 00000KT 10SM CLR 22/02 A2986 RMK AO2 T02160023
KCPU 160755Z AUTO 00000KT 10SM CLR 22/03 A2986 RMK AO2 T02210025 403660158
KCPU 160735Z AUTO 00000KT 10SM CLR 23/03 A2986 RMK AO2 T02290025
KCPU 160715Z AUTO 00000KT 10SM CLR 24/03 A2986 RMK AO2 T02410027
KCPU 160655Z AUTO 00000KT 10SM CLR 24/03 A2986 RMK AO2 T02390025
KCPU 160635Z AUTO 00000KT 10SM CLR 25/03 A2986 RMK AO2 T02470025
KCPU 160615Z AUTO 00000KT 10SM CLR 25/03 A2986 RMK AO2 T02500025
KCPU 160555Z AUTO 00000KT 10SM CLR 26/03 A2986 RMK AO2 T02570027 10365 20257
KCPU 160535Z AUTO 00000KT 10SM CLR 27/03 A2986 RMK AO2 T02690025
KCPU 160515Z AUTO 00000KT 10SM CLR 28/03 A2986 RMK AO2 T02770025
KCPU 160455Z AUTO 00000KT 10SM CLR 28/03 A2986 RMK AO2 T02830026
KCPU 160435Z AUTO 00000KT 10SM CLR 29/03 A2985 RMK AO2 T02870025
KCPU 160415Z AUTO 00000KT 10SM CLR 29/02 A2985 RMK AO2 T02900019
KCPU 160355Z AUTO 35003KT 10SM CLR 30/01 A2985 RMK AO2 T02970014
KCPU 160335Z AUTO 35003KT 10SM CLR 31/01 A2984 RMK AO2 T03050013
KCPU 160315Z AUTO 00000KT 10SM CLR 32/01 A2984 RMK AO2 T03180010
KCPU 160255Z AUTO 32004KT 10SM CLR 32/01 A2983 RMK AO2 T03240011
KCPU 160235Z AUTO 32006KT 10SM CLR 34/01 A2983 RMK AO2 T03350012
KCPU 160215Z AUTO 31005KT 10SM CLR 34/01 A2983 RMK AO2 T03410007
KCPU 160155Z AUTO 32005KT 10SM CLR 35/01 A2983 RMK AO2 T03480007
KCPU 160135Z AUTO 30006KT 10SM CLR 35/01 A2983 RMK AO2 T03520007
KCPU 160115Z AUTO 30006KT 10SM CLR 36/01 A2983 RMK AO2 T03560005
KCPU 160055Z AUTO 32006KT 10SM CLR 36/00 A2983 RMK AO2 T03590003
KCPU 160035Z AUTO 33003KT 10SM CLR 36/00 A2983 RMK AO2 T03590003
KCPU 160015Z AUTO 31005KT 10SM CLR 36/01 A2984 RMK AO2 T03620008
KCPU 152355Z AUTO 27007KT 10SM CLR 37/02 A2984 RMK AO2 T03650015 10366 20320
KCPU 152335Z AUTO 29004KT 10SM CLR 36/01 A2984 RMK AO2 T03630010
KCPU 152315Z AUTO 31005KT 10SM CLR 36/02 A2985 RMK AO2 T03640015
KCPU 152255Z AUTO 33004KT 10SM CLR 36/02 A2985 RMK AO2 T03620015
KCPU 152235Z AUTO 32003KT 10SM CLR 36/01 A2985 RMK AO2 T03600012
KCPU 152215Z AUTO 32004KT 10SM CLR 36/03 A2986 RMK AO2 T03620025
KCPU 152155Z AUTO 34006KT 10SM CLR 36/03 A2986 RMK AO2 T03600028
KCPU 152135Z AUTO 35005KT 10SM CLR 36/03 A2987 RMK AO2 T03630025
KCPU 152115Z AUTO 34005KT 10SM CLR 35/02 A2987 RMK AO2 T03540020
KCPU 152055Z AUTO 34005KT 10SM CLR 36/02 A2987 RMK AO2 T03550019
KCPU 152035Z AUTO 34006KT 10SM CLR 35/02 A2988 RMK AO2 T03540020
KCPU 152015Z AUTO 34006KT 10SM CLR 35/02 A2988 RMK AO2 T03490024
KCPU 151955Z AUTO 35006KT 10SM CLR 34/01 A2988 RMK AO2 T03440009
KCPU 151935Z AUTO 35007KT 10SM CLR 34/01 A2989 RMK AO2 T03420009
KCPU 151915Z AUTO 34006KT 10SM CLR 34/02 A2990 RMK AO2 T03360015
KCPU 151855Z AUTO 34007KT 10SM CLR 34/02 A2990 RMK AO2 T03350016
KCPU 151835Z AUTO 34005KT 10SM CLR 33/02 A2990 RMK AO2 T03290016
KCPU 151815Z AUTO 34004KT 10SM CLR 33/02 A2990 RMK AO2 T03260018
KCPU 151755Z AUTO 33004KT 10SM CLR 32/01 A2990 RMK AO2 T03220014 10322 20158
KCPU 151735Z AUTO 00000KT 10SM CLR 32/00 A2990 RMK AO2 T03170004
KCPU 151715Z AUTO 00000KT 10SM CLR 31/02 A2990 RMK AO2 T03140023
KCPU 151655Z AUTO 00000KT 10SM CLR 30/02 A2990 RMK AO2 T02950017
KCPU 151635Z AUTO 00000KT 10SM CLR 28/02 A2990 RMK AO2 T02800017
KCPU 151615Z AUTO 00000KT 10SM CLR 27/03 A2990 RMK AO2 T02730026
KCPU 151555Z AUTO 00000KT 10SM CLR 25/03 A2990 RMK AO2 T02500028
KCPU 151535Z AUTO 00000KT 10SM CLR 23/03 A2990 RMK AO2 T02320032
KCPU 151515Z AUTO 00000KT 10SM CLR 22/03 A2990 RMK AO2 T02160027
KCPU 151455Z AUTO 00000KT 10SM CLR 20/03 A2990 RMK AO2 T02010029
KCPU 151435Z AUTO 00000KT 10SM CLR 20/04 A2990 RMK AO2 T01950036
KCPU 151415Z AUTO 00000KT 10SM CLR 18/04 A2990 RMK AO2 T01750038
KCPU 151355Z AUTO 00000KT 10SM CLR 17/04 A2990 RMK AO2 T01710040
KCPU 151335Z AUTO 00000KT 10SM CLR 17/03 A2990 RMK AO2 T01740032
KCPU 151315Z AUTO 00000KT 10SM CLR 17/03 A2990 RMK AO2 T01720033
KCPU 151255Z AUTO 00000KT 10SM CLR 16/04 A2989 RMK AO2 T01620039
KCPU 151235Z AUTO 00000KT 10SM CLR 17/03 A2989 RMK AO2 T01680030
KCPU 151215Z AUTO 00000KT 10SM CLR 16/04 A2989 RMK AO2 T01630037
KCPU 151155Z AUTO 00000KT 10SM CLR 17/03 A2990 RMK AO2 T01720026 10245 20170
KCPU 151135Z AUTO 00000KT 10SM CLR 17/03 A2990 RMK AO2 T01710029
KCPU 151115Z AUTO 00000KT 10SM CLR 18/02 A2990 RMK AO2 T01800017
KCPU 151055Z AUTO 00000KT 10SM CLR 18/01 A2990 RMK AO2 T01760011
KCPU 151035Z AUTO 00000KT 10SM CLR 18/01 A2990 RMK AO2 T01750011
KCPU 151015Z AUTO 00000KT 10SM CLR 18/01 A2990 RMK AO2 T01750013
KCPU 150955Z AUTO 00000KT 10SM CLR 19/02 A2991 RMK AO2 T01850024
KCPU 150935Z AUTO 00000KT 10SM CLR 19/02 A2991 RMK AO2 T01900023
KCPU 150915Z AUTO 00000KT 10SM CLR 19/01 A2991 RMK AO2 T01850005
KCPU 150855Z AUTO 00000KT 10SM CLR 20/02 A2991 RMK AO2 T01970016
KCPU 150835Z AUTO 13003KT 10SM CLR 19/01 A2992 RMK AO2 T01860011
KCPU 150815Z AUTO 11003KT 10SM CLR 20/01 A2992 RMK AO2 T01950006
KCPU 150755Z AUTO 00000KT 10SM CLR 21/01 A2993 RMK AO2 T02060005 403550157
KCPU 150735Z AUTO 00000KT 10SM CLR 21/01 A2993 RMK AO2 T02090007
KCPU 150715Z AUTO 10003KT 10SM CLR 21/01 A2993 RMK AO2 T02060007
KCPU 150655Z AUTO 00000KT 10SM CLR 22/01 A2993 RMK AO2 T02200011
KCPU 150635Z AUTO 00000KT 10SM CLR 24/05 A2993 RMK AO2 T02350045
KCPU 150615Z AUTO 00000KT 10SM CLR 24/05 A2993 RMK AO2 T02430052
KCPU 150555Z AUTO 00000KT 10SM CLR 25/05 A2992 RMK AO2 T02450049 10355 20245
KCPU 150535Z AUTO 00000KT 10SM CLR 25/05 A2992 RMK AO2 T02520047
KCPU 150515Z AUTO 00000KT 10SM CLR 26/04 A2992 RMK AO2 T02560036
KCPU 150455Z AUTO 00000KT 10SM CLR 27/04 A2992 RMK AO2 T02670035
KCPU 150435Z AUTO 36003KT 10SM CLR 27/03 A2992 RMK AO2 T02700031
KCPU 150415Z AUTO 35003KT 10SM CLR 28/03 A2991 RMK AO2 T02750030
KCPU 150355Z AUTO 01003KT 10SM CLR 28/02 A2991 RMK AO2 T02800024
KCPU 150335Z AUTO 35003KT 10SM CLR 30/02 A2990 RMK AO2 T03000020
KCPU 150315Z AUTO 34003KT 10SM CLR 31/02 A2990 RMK AO2 T03050018
KCPU 150255Z AUTO 31005KT 10SM CLR 31/02 A2990 RMK AO2 T03080020
KCPU 150235Z AUTO 31005KT 10SM CLR 32/02 A2990 RMK AO2 T03200017
KCPU 150215Z AUTO 30005KT 10SM CLR 33/01 A2990 RMK AO2 T03280011
KCPU 150155Z AUTO 30007KT 10SM CLR 34/01 A2990 RMK AO2 T03360009
KCPU 150135Z AUTO 30005KT 10SM CLR 34/00 A2990 RMK AO2 T03400000
KCPU 150115Z AUTO 31006KT 10SM CLR 34/00 A2990 RMK AO2 T03440000
KCPU 150055Z AUTO 31007KT 10SM CLR 35/00 A2991 RMK AO2 T03450000
KCPU 150035Z AUTO 30007KT 10SM CLR 35/00 A2991 RMK AO2 T03460000
KCPU 150015Z AUTO 29006KT 10SM CLR 35/00 A2991 RMK AO2 T03500000